Terminal Aerodrome Forecast
Issued by NWS

Home | Current Version | Previous Version | Text Only | Print | Product List | Glossary On
Versions: 1 2 3 4 5 6 7 8 9 10 11 12 13 14 15 16 17 18 19 20 21 22 23 24 25 26 27 28
705
FTUS45 KBOU 052351
TAFBJC
TAF
KBJC 052351Z 0600/0624 11007KT P6SM SCT120 BKN200
     FM060200 17007KT P6SM SCT120 BKN220
     FM060500 24006KT P6SM SCT120 BKN200
     FM061200 VRB05KT P6SM SCT090
     FM061900 03008KT P6SM SCT090
     FM062200 28015KT P6SM VCTS SCT090CB BKN220=

USA.gov is the U.S. government's official web portal to all federal, state and local government web resources and services.